sensor_id;sensor_type;location;lat;lon;timestamp;P1;durP1;ratioP1;P2;durP2;ratioP2
22894;SDS011;11614;52.494;6.976;2023-03-03T00:01:45;29.13;;;11.00;;
22894;SDS011;11614;52.494;6.976;2023-03-03T00:04:11;33.93;;;13.80;;
22894;SDS011;11614;52.494;6.976;2023-03-03T00:06:37;48.23;;;15.07;;
22894;SDS011;11614;52.494;6.976;2023-03-03T00:09:03;38.83;;;14.73;;
22894;SDS011;11614;52.494;6.976;2023-03-03T00:11:29;32.40;;;12.20;;
22894;SDS011;11614;52.494;6.976;2023-03-03T00:13:55;41.53;;;15.63;;
22894;SDS011;11614;52.494;6.976;2023-03-03T00:18:47;38.37;;;15.67;;
22894;SDS011;11614;52.494;6.976;2023-03-03T00:21:20;37.00;;;14.77;;
22894;SDS011;11614;52.494;6.976;2023-03-03T00:24:02;36.97;;;12.63;;
22894;SDS011;11614;52.494;6.976;2023-03-03T00:26:38;21.93;;;8.67;;
22894;SDS011;11614;52.494;6.976;2023-03-03T00:34:47;36.93;;;13.80;;
22894;SDS011;11614;52.494;6.976;2023-03-03T00:39:51;35.87;;;14.83;;
22894;SDS011;11614;52.494;6.976;2023-03-03T00:42:17;38.73;;;15.00;;
22894;SDS011;11614;52.494;6.976;2023-03-03T00:47:17;32.57;;;12.20;;
22894;SDS011;11614;52.494;6.976;2023-03-03T00:52:32;28.63;;;10.87;;
22894;SDS011;11614;52.494;6.976;2023-03-03T00:55:00;41.83;;;17.70;;
22894;SDS011;11614;52.494;6.976;2023-03-03T00:57:26;33.37;;;12.87;;
22894;SDS011;11614;52.494;6.976;2023-03-03T00:59:52;35.63;;;13.73;;
22894;SDS011;11614;52.494;6.976;2023-03-03T01:02:18;37.77;;;13.90;;
22894;SDS011;11614;52.494;6.976;2023-03-03T01:04:47;37.57;;;14.30;;
22894;SDS011;11614;52.494;6.976;2023-03-03T01:07:15;21.03;;;7.40;;
22894;SDS011;11614;52.494;6.976;2023-03-03T01:09:41;32.47;;;13.23;;
22894;SDS011;11614;52.494;6.976;2023-03-03T01:12:07;33.20;;;12.37;;
22894;SDS011;11614;52.494;6.976;2023-03-03T01:14:33;34.70;;;13.70;;
22894;SDS011;11614;52.494;6.976;2023-03-03T01:16:59;34.43;;;13.63;;
22894;SDS011;11614;52.494;6.976;2023-03-03T01:19:25;41.40;;;15.93;;
22894;SDS011;11614;52.494;6.976;2023-03-03T01:21:50;37.43;;;13.20;;
22894;SDS011;11614;52.494;6.976;2023-03-03T01:24:16;37.23;;;13.83;;
22894;SDS011;11614;52.494;6.976;2023-03-03T01:26:42;37.47;;;14.80;;
22894;SDS011;11614;52.494;6.976;2023-03-03T01:29:08;37.70;;;15.53;;
22894;SDS011;11614;52.494;6.976;2023-03-03T01:31:34;44.47;;;15.87;;
22894;SDS011;11614;52.494;6.976;2023-03-03T01:34:00;38.90;;;14.83;;
22894;SDS011;11614;52.494;6.976;2023-03-03T01:36:26;31.37;;;12.73;;
22894;SDS011;11614;52.494;6.976;2023-03-03T01:38:52;41.57;;;15.00;;
22894;SDS011;11614;52.494;6.976;2023-03-03T01:41:18;40.67;;;16.00;;
22894;SDS011;11614;52.494;6.976;2023-03-03T01:43:45;39.33;;;17.27;;
22894;SDS011;11614;52.494;6.976;2023-03-03T01:46:55;40.87;;;18.40;;
22894;SDS011;11614;52.494;6.976;2023-03-03T01:49:45;39.57;;;18.27;;
22894;SDS011;11614;52.494;6.976;2023-03-03T01:52:34;39.90;;;17.73;;
22894;SDS011;11614;52.494;6.976;2023-03-03T01:55:16;33.70;;;13.83;;
22894;SDS011;11614;52.494;6.976;2023-03-03T01:57:48;35.87;;;13.43;;
22894;SDS011;11614;52.494;6.976;2023-03-03T02:00:21;36.20;;;13.63;;
22894;SDS011;11614;52.494;6.976;2023-03-03T02:02:47;32.40;;;12.63;;
22894;SDS011;11614;52.494;6.976;2023-03-03T02:05:13;34.77;;;14.37;;
22894;SDS011;11614;52.494;6.976;2023-03-03T02:07:40;36.27;;;14.60;;
22894;SDS011;11614;52.494;6.976;2023-03-03T02:10:10;33.27;;;14.50;;
22894;SDS011;11614;52.494;6.976;2023-03-03T02:12:41;40.67;;;13.93;;
22894;SDS011;11614;52.494;6.976;2023-03-03T02:15:21;35.50;;;13.20;;
22894;SDS011;11614;52.494;6.976;2023-03-03T02:17:49;41.33;;;16.13;;
22894;SDS011;11614;52.494;6.976;2023-03-03T02:28:18;24.20;;;8.37;;
22894;SDS011;11614;52.494;6.976;2023-03-03T02:30:45;44.47;;;19.80;;
22894;SDS011;11614;52.494;6.976;2023-03-03T02:33:11;26.67;;;11.43;;
22894;SDS011;11614;52.494;6.976;2023-03-03T02:35:38;37.17;;;14.13;;
22894;SDS011;11614;52.494;6.976;2023-03-03T02:38:13;25.57;;;10.90;;
22894;SDS011;11614;52.494;6.976;2023-03-03T02:40:59;18.13;;;8.80;;
22894;SDS011;11614;52.494;6.976;2023-03-03T02:44:30;35.50;;;13.47;;
22894;SDS011;11614;52.494;6.976;2023-03-03T02:46:41;38.33;;;13.27;;
22894;SDS011;11614;52.494;6.976;2023-03-03T02:49:09;34.83;;;13.60;;
22894;SDS011;11614;52.494;6.976;2023-03-03T02:51:35;33.73;;;14.33;;
22894;SDS011;11614;52.494;6.976;2023-03-03T02:54:01;34.03;;;13.27;;
22894;SDS011;11614;52.494;6.976;2023-03-03T02:56:27;33.93;;;13.00;;
22894;SDS011;11614;52.494;6.976;2023-03-03T02:58:54;33.53;;;13.67;;
22894;SDS011;11614;52.494;6.976;2023-03-03T03:01:20;44.07;;;18.40;;
22894;SDS011;11614;52.494;6.976;2023-03-03T03:03:46;34.63;;;12.30;;
22894;SDS011;11614;52.494;6.976;2023-03-03T03:06:12;36.60;;;13.70;;
22894;SDS011;11614;52.494;6.976;2023-03-03T03:08:38;41.30;;;14.73;;
22894;SDS011;11614;52.494;6.976;2023-03-03T03:11:04;33.90;;;13.67;;
22894;SDS011;11614;52.494;6.976;2023-03-03T03:13:30;42.47;;;15.23;;
22894;SDS011;11614;52.494;6.976;2023-03-03T03:15:56;36.13;;;14.10;;
22894;SDS011;11614;52.494;6.976;2023-03-03T03:18:23;30.33;;;12.93;;
22894;SDS011;11614;52.494;6.976;2023-03-03T03:20:49;38.13;;;16.13;;
22894;SDS011;11614;52.494;6.976;2023-03-03T03:23:15;46.43;;;17.23;;
22894;SDS011;11614;52.494;6.976;2023-03-03T03:25:41;39.50;;;14.50;;
22894;SDS011;11614;52.494;6.976;2023-03-03T03:28:10;37.20;;;14.40;;
22894;SDS011;11614;52.494;6.976;2023-03-03T03:30:37;35.73;;;13.70;;
22894;SDS011;11614;52.494;6.976;2023-03-03T03:33:03;39.37;;;15.27;;
22894;SDS011;11614;52.494;6.976;2023-03-03T03:35:29;34.57;;;11.30;;
22894;SDS011;11614;52.494;6.976;2023-03-03T03:37:57;33.83;;;13.33;;
22894;SDS011;11614;52.494;6.976;2023-03-03T03:40:23;32.73;;;10.13;;
22894;SDS011;11614;52.494;6.976;2023-03-03T03:42:52;33.83;;;10.33;;
22894;SDS011;11614;52.494;6.976;2023-03-03T03:45:18;32.80;;;12.00;;
22894;SDS011;11614;52.494;6.976;2023-03-03T03:47:44;41.13;;;15.17;;
22894;SDS011;11614;52.494;6.976;2023-03-03T03:50:11;36.23;;;14.77;;
22894;SDS011;11614;52.494;6.976;2023-03-03T03:52:37;36.13;;;13.50;;
22894;SDS011;11614;52.494;6.976;2023-03-03T03:55:03;35.03;;;12.00;;
22894;SDS011;11614;52.494;6.976;2023-03-03T03:57:29;37.67;;;13.23;;
22894;SDS011;11614;52.494;6.976;2023-03-03T03:59:55;37.53;;;14.63;;
22894;SDS011;11614;52.494;6.976;2023-03-03T04:02:21;32.40;;;12.37;;
22894;SDS011;11614;52.494;6.976;2023-03-03T04:04:47;24.40;;;9.93;;
22894;SDS011;11614;52.494;6.976;2023-03-03T04:07:13;34.27;;;12.47;;
22894;SDS011;11614;52.494;6.976;2023-03-03T04:09:38;34.63;;;12.70;;
22894;SDS011;11614;52.494;6.976;2023-03-03T04:12:04;34.07;;;12.37;;
22894;SDS011;11614;52.494;6.976;2023-03-03T04:14:30;25.60;;;9.00;;
22894;SDS011;11614;52.494;6.976;2023-03-03T04:16:56;39.23;;;14.13;;
22894;SDS011;11614;52.494;6.976;2023-03-03T04:19:22;23.70;;;7.27;;
22894;SDS011;11614;52.494;6.976;2023-03-03T04:21:48;39.70;;;13.57;;
22894;SDS011;11614;52.494;6.976;2023-03-03T04:24:15;37.77;;;13.77;;
22894;SDS011;11614;52.494;6.976;2023-03-03T04:26:41;38.90;;;12.37;;
22894;SDS011;11614;52.494;6.976;2023-03-03T04:29:06;34.97;;;12.63;;
22894;SDS011;11614;52.494;6.976;2023-03-03T04:31:32;31.87;;;11.90;;
22894;SDS011;11614;52.494;6.976;2023-03-03T04:33:58;28.77;;;10.00;;
22894;SDS011;11614;52.494;6.976;2023-03-03T04:36:23;31.60;;;10.63;;
22894;SDS011;11614;52.494;6.976;2023-03-03T04:38:49;38.20;;;14.00;;
22894;SDS011;11614;52.494;6.976;2023-03-03T04:41:15;35.57;;;12.77;;
22894;SDS011;11614;52.494;6.976;2023-03-03T04:43:41;35.43;;;11.23;;
22894;SDS011;11614;52.494;6.976;2023-03-03T04:46:07;39.90;;;14.93;;
22894;SDS011;11614;52.494;6.976;2023-03-03T04:48:33;32.43;;;11.17;;
22894;SDS011;11614;52.494;6.976;2023-03-03T04:50:59;33.63;;;12.70;;
22894;SDS011;11614;52.494;6.976;2023-03-03T04:53:24;41.57;;;12.83;;
22894;SDS011;11614;52.494;6.976;2023-03-03T04:55:51;35.20;;;12.27;;
22894;SDS011;11614;52.494;6.976;2023-03-03T04:58:17;38.67;;;13.17;;
22894;SDS011;11614;52.494;6.976;2023-03-03T05:00:47;34.83;;;12.67;;
22894;SDS011;11614;52.494;6.976;2023-03-03T05:03:18;36.53;;;11.90;;
22894;SDS011;11614;52.494;6.976;2023-03-03T05:05:44;31.90;;;12.13;;
22894;SDS011;11614;52.494;6.976;2023-03-03T05:08:11;37.63;;;13.27;;
22894;SDS011;11614;52.494;6.976;2023-03-03T05:10:37;35.83;;;11.97;;
22894;SDS011;11614;52.494;6.976;2023-03-03T05:13:03;32.17;;;11.50;;
22894;SDS011;11614;52.494;6.976;2023-03-03T05:15:29;32.70;;;12.43;;
22894;SDS011;11614;52.494;6.976;2023-03-03T05:17:55;34.40;;;12.07;;
22894;SDS011;11614;52.494;6.976;2023-03-03T05:20:22;32.47;;;11.73;;
22894;SDS011;11614;52.494;6.976;2023-03-03T05:22:49;40.97;;;14.03;;
22894;SDS011;11614;52.494;6.976;2023-03-03T05:25:14;39.20;;;14.53;;
22894;SDS011;11614;52.494;6.976;2023-03-03T05:27:40;36.33;;;12.53;;
22894;SDS011;11614;52.494;6.976;2023-03-03T05:30:07;37.03;;;12.10;;
22894;SDS011;11614;52.494;6.976;2023-03-03T05:32:34;38.83;;;14.00;;
22894;SDS011;11614;52.494;6.976;2023-03-03T05:35:00;42.43;;;14.87;;
22894;SDS011;11614;52.494;6.976;2023-03-03T05:37:26;31.37;;;10.83;;
22894;SDS011;11614;52.494;6.976;2023-03-03T05:39:52;37.03;;;12.57;;
22894;SDS011;11614;52.494;6.976;2023-03-03T05:42:18;41.50;;;14.73;;
22894;SDS011;11614;52.494;6.976;2023-03-03T05:44:44;41.00;;;14.17;;
22894;SDS011;11614;52.494;6.976;2023-03-03T05:47:10;38.10;;;13.43;;
22894;SDS011;11614;52.494;6.976;2023-03-03T05:49:36;33.73;;;10.93;;
22894;SDS011;11614;52.494;6.976;2023-03-03T05:52:01;35.73;;;11.90;;
22894;SDS011;11614;52.494;6.976;2023-03-03T05:54:27;40.70;;;14.17;;
22894;SDS011;11614;52.494;6.976;2023-03-03T05:56:53;33.47;;;12.80;;
22894;SDS011;11614;52.494;6.976;2023-03-03T05:59:21;33.50;;;11.23;;
22894;SDS011;11614;52.494;6.976;2023-03-03T06:01:47;40.37;;;14.00;;
22894;SDS011;11614;52.494;6.976;2023-03-03T06:04:13;45.77;;;14.87;;
22894;SDS011;11614;52.494;6.976;2023-03-03T06:06:39;45.80;;;16.20;;
22894;SDS011;11614;52.494;6.976;2023-03-03T06:09:05;39.03;;;14.57;;
22894;SDS011;11614;52.494;6.976;2023-03-03T06:11:30;33.63;;;10.63;;
22894;SDS011;11614;52.494;6.976;2023-03-03T06:13:56;37.83;;;12.07;;
22894;SDS011;11614;52.494;6.976;2023-03-03T06:16:23;38.77;;;13.37;;
22894;SDS011;11614;52.494;6.976;2023-03-03T06:18:49;36.83;;;12.87;;
22894;SDS011;11614;52.494;6.976;2023-03-03T06:21:15;40.43;;;13.37;;
22894;SDS011;11614;52.494;6.976;2023-03-03T06:23:40;41.43;;;14.00;;
22894;SDS011;11614;52.494;6.976;2023-03-03T06:26:06;42.70;;;14.47;;
22894;SDS011;11614;52.494;6.976;2023-03-03T06:28:32;41.73;;;14.53;;
22894;SDS011;11614;52.494;6.976;2023-03-03T06:30:58;44.27;;;14.20;;
22894;SDS011;11614;52.494;6.976;2023-03-03T06:33:24;41.07;;;13.80;;
22894;SDS011;11614;52.494;6.976;2023-03-03T06:35:51;43.50;;;14.87;;
22894;SDS011;11614;52.494;6.976;2023-03-03T06:38:18;40.03;;;15.50;;
22894;SDS011;11614;52.494;6.976;2023-03-03T06:40:44;36.93;;;13.80;;
22894;SDS011;11614;52.494;6.976;2023-03-03T06:43:11;42.27;;;13.23;;
22894;SDS011;11614;52.494;6.976;2023-03-03T06:45:37;40.27;;;13.37;;
22894;SDS011;11614;52.494;6.976;2023-03-03T06:48:03;34.27;;;12.10;;
22894;SDS011;11614;52.494;6.976;2023-03-03T06:50:29;41.93;;;14.50;;
22894;SDS011;11614;52.494;6.976;2023-03-03T06:53:05;35.27;;;14.30;;
22894;SDS011;11614;52.494;6.976;2023-03-03T06:55:39;35.33;;;12.47;;
22894;SDS011;11614;52.494;6.976;2023-03-03T06:58:10;32.77;;;11.50;;
22894;SDS011;11614;52.494;6.976;2023-03-03T07:00:41;34.87;;;11.83;;
22894;SDS011;11614;52.494;6.976;2023-03-03T07:03:15;43.00;;;13.53;;
22894;SDS011;11614;52.494;6.976;2023-03-03T07:05:43;36.33;;;12.27;;
22894;SDS011;11614;52.494;6.976;2023-03-03T07:08:15;44.00;;;14.37;;
22894;SDS011;11614;52.494;6.976;2023-03-03T07:10:46;31.80;;;10.30;;
22894;SDS011;11614;52.494;6.976;2023-03-03T07:15:39;38.30;;;14.10;;
22894;SDS011;11614;52.494;6.976;2023-03-03T07:18:06;32.97;;;11.30;;
22894;SDS011;11614;52.494;6.976;2023-03-03T07:20:45;38.10;;;12.80;;
22894;SDS011;11614;52.494;6.976;2023-03-03T07:23:17;45.50;;;14.93;;
22894;SDS011;11614;52.494;6.976;2023-03-03T07:25:48;41.27;;;14.13;;
22894;SDS011;11614;52.494;6.976;2023-03-03T07:28:27;35.00;;;12.53;;
22894;SDS011;11614;52.494;6.976;2023-03-03T07:30:56;35.57;;;11.80;;
22894;SDS011;11614;52.494;6.976;2023-03-03T07:35:53;41.87;;;14.10;;
22894;SDS011;11614;52.494;6.976;2023-03-03T07:38:24;43.63;;;15.73;;
22894;SDS011;11614;52.494;6.976;2023-03-03T07:41:02;55.00;;;18.47;;
22894;SDS011;11614;52.494;6.976;2023-03-03T07:43:31;45.10;;;13.37;;
22894;SDS011;11614;52.494;6.976;2023-03-03T07:48:57;34.47;;;12.50;;
22894;SDS011;11614;52.494;6.976;2023-03-03T07:53:51;25.73;;;8.30;;
22894;SDS011;11614;52.494;6.976;2023-03-03T07:56:35;26.53;;;10.37;;
22894;SDS011;11614;52.494;6.976;2023-03-03T08:01:46;29.20;;;10.97;;
22894;SDS011;11614;52.494;6.976;2023-03-03T08:04:19;27.83;;;10.27;;
22894;SDS011;11614;52.494;6.976;2023-03-03T08:06:50;25.37;;;9.77;;
22894;SDS011;11614;52.494;6.976;2023-03-03T08:14:35;26.37;;;9.47;;
22894;SDS011;11614;52.494;6.976;2023-03-03T08:17:05;25.30;;;9.43;;
22894;SDS011;11614;52.494;6.976;2023-03-03T08:19:38;19.87;;;7.87;;
22894;SDS011;11614;52.494;6.976;2023-03-03T08:24:48;18.57;;;7.17;;
22894;SDS011;11614;52.494;6.976;2023-03-03T08:27:14;13.03;;;5.80;;
22894;SDS011;11614;52.494;6.976;2023-03-03T08:29:40;9.43;;;4.37;;
22894;SDS011;11614;52.494;6.976;2023-03-03T08:32:06;12.03;;;5.33;;
22894;SDS011;11614;52.494;6.976;2023-03-03T08:34:32;15.13;;;6.13;;
22894;SDS011;11614;52.494;6.976;2023-03-03T08:36:58;15.90;;;6.60;;
22894;SDS011;11614;52.494;6.976;2023-03-03T08:39:24;11.20;;;5.13;;
22894;SDS011;11614;52.494;6.976;2023-03-03T08:41:50;6.93;;;3.07;;
22894;SDS011;11614;52.494;6.976;2023-03-03T08:44:16;16.13;;;6.60;;
22894;SDS011;11614;52.494;6.976;2023-03-03T08:46:44;13.83;;;5.63;;
22894;SDS011;11614;52.494;6.976;2023-03-03T08:49:10;13.57;;;5.73;;
22894;SDS011;11614;52.494;6.976;2023-03-03T08:51:36;13.93;;;6.43;;
22894;SDS011;11614;52.494;6.976;2023-03-03T08:54:02;19.90;;;7.67;;
22894;SDS011;11614;52.494;6.976;2023-03-03T08:56:27;17.17;;;5.43;;
22894;SDS011;11614;52.494;6.976;2023-03-03T08:58:53;13.43;;;6.17;;
22894;SDS011;11614;52.494;6.976;2023-03-03T09:01:19;15.00;;;7.43;;
22894;SDS011;11614;52.494;6.976;2023-03-03T09:03:45;11.40;;;5.13;;
22894;SDS011;11614;52.494;6.976;2023-03-03T09:06:10;9.13;;;4.23;;
22894;SDS011;11614;52.494;6.976;2023-03-03T09:08:36;19.00;;;8.47;;
22894;SDS011;11614;52.494;6.976;2023-03-03T09:11:02;10.13;;;5.00;;
22894;SDS011;11614;52.494;6.976;2023-03-03T09:13:37;11.50;;;4.70;;
22894;SDS011;11614;52.494;6.976;2023-03-03T09:16:06;10.27;;;4.80;;
22894;SDS011;11614;52.494;6.976;2023-03-03T09:18:38;10.90;;;5.53;;
22894;SDS011;11614;52.494;6.976;2023-03-03T09:21:24;10.23;;;5.20;;
22894;SDS011;11614;52.494;6.976;2023-03-03T09:23:53;10.07;;;4.67;;
22894;SDS011;11614;52.494;6.976;2023-03-03T09:26:25;8.90;;;4.97;;
22894;SDS011;11614;52.494;6.976;2023-03-03T09:28:57;22.70;;;10.33;;
22894;SDS011;11614;52.494;6.976;2023-03-03T09:31:27;64.47;;;41.93;;
22894;SDS011;11614;52.494;6.976;2023-03-03T09:34:01;24.77;;;15.77;;
22894;SDS011;11614;52.494;6.976;2023-03-03T09:36:36;14.43;;;11.17;;
22894;SDS011;11614;52.494;6.976;2023-03-03T09:39:19;16.37;;;10.17;;
22894;SDS011;11614;52.494;6.976;2023-03-03T09:44:34;8.20;;;4.27;;
22894;SDS011;11614;52.494;6.976;2023-03-03T09:49:31;7.40;;;4.20;;
22894;SDS011;11614;52.494;6.976;2023-03-03T09:54:41;9.50;;;4.60;;
22894;SDS011;11614;52.494;6.976;2023-03-03T09:57:46;9.63;;;4.17;;
22894;SDS011;11614;52.494;6.976;2023-03-03T10:00:22;9.53;;;3.70;;
22894;SDS011;11614;52.494;6.976;2023-03-03T10:08:20;7.57;;;3.37;;
22894;SDS011;11614;52.494;6.976;2023-03-03T10:11:12;8.57;;;5.63;;
22894;SDS011;11614;52.494;6.976;2023-03-03T10:21:32;6.43;;;3.47;;
22894;SDS011;11614;52.494;6.976;2023-03-03T10:31:22;5.90;;;2.77;;
22894;SDS011;11614;52.494;6.976;2023-03-03T10:34:03;5.83;;;2.50;;
22894;SDS011;11614;52.494;6.976;2023-03-03T10:36:34;4.80;;;2.20;;
22894;SDS011;11614;52.494;6.976;2023-03-03T10:41:57;34.73;;;21.53;;
22894;SDS011;11614;52.494;6.976;2023-03-03T10:44:37;6.37;;;2.77;;
22894;SDS011;11614;52.494;6.976;2023-03-03T10:47:17;6.57;;;2.90;;
22894;SDS011;11614;52.494;6.976;2023-03-03T10:52:32;4.63;;;2.73;;
22894;SDS011;11614;52.494;6.976;2023-03-03T10:55:12;7.67;;;4.33;;
22894;SDS011;11614;52.494;6.976;2023-03-03T10:58:25;4.27;;;2.70;;
22894;SDS011;11614;52.494;6.976;2023-03-03T11:00:37;6.17;;;3.43;;
22894;SDS011;11614;52.494;6.976;2023-03-03T11:08:14;8.73;;;4.73;;
22894;SDS011;11614;52.494;6.976;2023-03-03T11:10:50;4.80;;;2.73;;
22894;SDS011;11614;52.494;6.976;2023-03-03T11:13:25;4.53;;;2.27;;
22894;SDS011;11614;52.494;6.976;2023-03-03T11:16:12;9.67;;;3.10;;
22894;SDS011;11614;52.494;6.976;2023-03-03T11:18:45;5.67;;;2.47;;
22894;SDS011;11614;52.494;6.976;2023-03-03T11:21:21;6.63;;;3.70;;
22894;SDS011;11614;52.494;6.976;2023-03-03T11:23:58;5.87;;;3.23;;
22894;SDS011;11614;52.494;6.976;2023-03-03T11:36:49;4.73;;;1.97;;
22894;SDS011;11614;52.494;6.976;2023-03-03T11:39:19;4.57;;;2.47;;
22894;SDS011;11614;52.494;6.976;2023-03-03T11:44:46;3.50;;;1.87;;
22894;SDS011;11614;52.494;6.976;2023-03-03T11:47:28;15.13;;;9.47;;
22894;SDS011;11614;52.494;6.976;2023-03-03T11:55:18;5.07;;;2.23;;
22894;SDS011;11614;52.494;6.976;2023-03-03T12:08:04;4.80;;;2.20;;
22894;SDS011;11614;52.494;6.976;2023-03-03T12:10:41;6.57;;;2.40;;
22894;SDS011;11614;52.494;6.976;2023-03-03T12:18:24;2.87;;;1.70;;
22894;SDS011;11614;52.494;6.976;2023-03-03T12:23:43;5.97;;;2.23;;
22894;SDS011;11614;52.494;6.976;2023-03-03T12:26:15;5.63;;;2.73;;
22894;SDS011;11614;52.494;6.976;2023-03-03T12:28:47;5.90;;;2.50;;
22894;SDS011;11614;52.494;6.976;2023-03-03T12:31:20;4.17;;;2.20;;
22894;SDS011;11614;52.494;6.976;2023-03-03T12:33:51;3.67;;;1.77;;
22894;SDS011;11614;52.494;6.976;2023-03-03T12:39:01;3.10;;;1.43;;
22894;SDS011;11614;52.494;6.976;2023-03-03T12:41:34;3.70;;;1.70;;
22894;SDS011;11614;52.494;6.976;2023-03-03T12:44:05;3.93;;;1.77;;
22894;SDS011;11614;52.494;6.976;2023-03-03T12:49:05;3.53;;;1.80;;
22894;SDS011;11614;52.494;6.976;2023-03-03T12:57:00;11.37;;;3.17;;
22894;SDS011;11614;52.494;6.976;2023-03-03T13:04:28;3.60;;;1.20;;
22894;SDS011;11614;52.494;6.976;2023-03-03T13:15:03;4.33;;;2.30;;
22894;SDS011;11614;52.494;6.976;2023-03-03T13:17:39;5.13;;;2.40;;
22894;SDS011;11614;52.494;6.976;2023-03-03T13:20:15;5.80;;;1.93;;
22894;SDS011;11614;52.494;6.976;2023-03-03T13:22:51;4.30;;;1.77;;
22894;SDS011;11614;52.494;6.976;2023-03-03T13:27:57;4.37;;;1.33;;
22894;SDS011;11614;52.494;6.976;2023-03-03T13:30:26;5.53;;;2.33;;
22894;SDS011;11614;52.494;6.976;2023-03-03T13:36:06;7.03;;;2.70;;
22894;SDS011;11614;52.494;6.976;2023-03-03T13:38:09;8.77;;;2.87;;
22894;SDS011;11614;52.494;6.976;2023-03-03T13:43:25;6.10;;;2.60;;
22894;SDS011;11614;52.494;6.976;2023-03-03T13:51:03;8.33;;;2.97;;
22894;SDS011;11614;52.494;6.976;2023-03-03T13:54:00;5.17;;;2.80;;
22894;SDS011;11614;52.494;6.976;2023-03-03T14:02:15;5.87;;;2.37;;
22894;SDS011;11614;52.494;6.976;2023-03-03T14:05:02;4.23;;;2.27;;
22894;SDS011;11614;52.494;6.976;2023-03-03T14:07:36;2.97;;;1.53;;
22894;SDS011;11614;52.494;6.976;2023-03-03T14:10:17;6.73;;;3.33;;
22894;SDS011;11614;52.494;6.976;2023-03-03T14:12:53;9.20;;;2.70;;
22894;SDS011;11614;52.494;6.976;2023-03-03T14:15:29;5.90;;;2.30;;
22894;SDS011;11614;52.494;6.976;2023-03-03T14:20:57;3.47;;;1.20;;
22894;SDS011;11614;52.494;6.976;2023-03-03T14:23:41;3.60;;;1.57;;
22894;SDS011;11614;52.494;6.976;2023-03-03T14:26:50;1.87;;;0.93;;
22894;SDS011;11614;52.494;6.976;2023-03-03T14:29:19;5.97;;;1.73;;
22894;SDS011;11614;52.494;6.976;2023-03-03T14:31:55;6.03;;;1.77;;
22894;SDS011;11614;52.494;6.976;2023-03-03T14:36:49;7.03;;;2.30;;
22894;SDS011;11614;52.494;6.976;2023-03-03T14:39:34;4.40;;;1.90;;
22894;SDS011;11614;52.494;6.976;2023-03-03T14:45:14;5.23;;;1.53;;
22894;SDS011;11614;52.494;6.976;2023-03-03T14:47:58;2.63;;;0.93;;
22894;SDS011;11614;52.494;6.976;2023-03-03T14:50:37;3.00;;;1.20;;
22894;SDS011;11614;52.494;6.976;2023-03-03T14:53:10;6.90;;;1.40;;
22894;SDS011;11614;52.494;6.976;2023-03-03T14:55:41;4.37;;;1.30;;
22894;SDS011;11614;52.494;6.976;2023-03-03T14:58:23;4.00;;;0.90;;
22894;SDS011;11614;52.494;6.976;2023-03-03T15:00:49;6.17;;;1.20;;
22894;SDS011;11614;52.494;6.976;2023-03-03T15:03:26;1.40;;;0.63;;
22894;SDS011;11614;52.494;6.976;2023-03-03T15:05:54;3.43;;;1.10;;
22894;SDS011;11614;52.494;6.976;2023-03-03T15:08:31;4.43;;;1.60;;
22894;SDS011;11614;52.494;6.976;2023-03-03T15:11:11;4.80;;;1.30;;
22894;SDS011;11614;52.494;6.976;2023-03-03T15:13:52;5.33;;;1.40;;
22894;SDS011;11614;52.494;6.976;2023-03-03T15:16:20;6.47;;;2.90;;
22894;SDS011;11614;52.494;6.976;2023-03-03T15:21:25;2.93;;;1.13;;
22894;SDS011;11614;52.494;6.976;2023-03-03T15:26:23;6.73;;;2.50;;
22894;SDS011;11614;52.494;6.976;2023-03-03T15:29:15;3.93;;;1.27;;
22894;SDS011;11614;52.494;6.976;2023-03-03T15:31:51;3.43;;;1.37;;
22894;SDS011;11614;52.494;6.976;2023-03-03T15:34:38;2.50;;;1.03;;
22894;SDS011;11614;52.494;6.976;2023-03-03T15:37:11;3.20;;;1.07;;
22894;SDS011;11614;52.494;6.976;2023-03-03T15:45:45;3.27;;;1.00;;
22894;SDS011;11614;52.494;6.976;2023-03-03T15:54:05;3.30;;;0.83;;
22894;SDS011;11614;52.494;6.976;2023-03-03T15:56:57;3.97;;;1.50;;
22894;SDS011;11614;52.494;6.976;2023-03-03T15:59:40;2.97;;;1.03;;
22894;SDS011;11614;52.494;6.976;2023-03-03T16:02:16;2.37;;;1.03;;
22894;SDS011;11614;52.494;6.976;2023-03-03T16:04:48;4.20;;;1.30;;
22894;SDS011;11614;52.494;6.976;2023-03-03T16:18:26;3.77;;;1.63;;
22894;SDS011;11614;52.494;6.976;2023-03-03T16:23:36;5.57;;;2.23;;
22894;SDS011;11614;52.494;6.976;2023-03-03T16:26:21;4.90;;;1.37;;
22894;SDS011;11614;52.494;6.976;2023-03-03T16:29:03;3.50;;;1.80;;
22894;SDS011;11614;52.494;6.976;2023-03-03T16:31:51;7.00;;;2.83;;
22894;SDS011;11614;52.494;6.976;2023-03-03T16:34:29;4.43;;;2.10;;
22894;SDS011;11614;52.494;6.976;2023-03-03T16:37:21;3.87;;;1.37;;
22894;SDS011;11614;52.494;6.976;2023-03-03T16:40:01;3.00;;;1.27;;
22894;SDS011;11614;52.494;6.976;2023-03-03T16:42:35;4.37;;;1.13;;
22894;SDS011;11614;52.494;6.976;2023-03-03T16:45:08;6.33;;;2.00;;
22894;SDS011;11614;52.494;6.976;2023-03-03T16:50:43;9.53;;;2.00;;
22894;SDS011;11614;52.494;6.976;2023-03-03T16:55:49;5.50;;;2.10;;
22894;SDS011;11614;52.494;6.976;2023-03-03T17:01:37;4.93;;;2.20;;
22894;SDS011;11614;52.494;6.976;2023-03-03T17:10:28;7.13;;;3.23;;
22894;SDS011;11614;52.494;6.976;2023-03-03T17:27:29;3.57;;;1.07;;
22894;SDS011;11614;52.494;6.976;2023-03-03T17:30:01;3.63;;;0.70;;
22894;SDS011;11614;52.494;6.976;2023-03-03T17:37:48;3.73;;;1.00;;
22894;SDS011;11614;52.494;6.976;2023-03-03T17:43:23;7.40;;;1.63;;
22894;SDS011;11614;52.494;6.976;2023-03-03T17:46:01;3.80;;;1.53;;
22894;SDS011;11614;52.494;6.976;2023-03-03T17:48:53;8.70;;;2.27;;
22894;SDS011;11614;52.494;6.976;2023-03-03T18:00:22;4.20;;;1.60;;
22894;SDS011;11614;52.494;6.976;2023-03-03T18:05:53;12.40;;;2.23;;
22894;SDS011;11614;52.494;6.976;2023-03-03T18:08:48;9.50;;;2.67;;
22894;SDS011;11614;52.494;6.976;2023-03-03T18:22:18;9.47;;;1.67;;
22894;SDS011;11614;52.494;6.976;2023-03-03T18:35:27;8.23;;;1.77;;
22894;SDS011;11614;52.494;6.976;2023-03-03T18:40:52;13.27;;;3.00;;
22894;SDS011;11614;52.494;6.976;2023-03-03T18:49:05;6.13;;;1.47;;
22894;SDS011;11614;52.494;6.976;2023-03-03T18:53:59;11.40;;;2.20;;
22894;SDS011;11614;52.494;6.976;2023-03-03T19:04:38;14.03;;;4.33;;
22894;SDS011;11614;52.494;6.976;2023-03-03T19:07:15;10.53;;;2.50;;
22894;SDS011;11614;52.494;6.976;2023-03-03T19:09:46;6.00;;;1.83;;
22894;SDS011;11614;52.494;6.976;2023-03-03T19:12:15;7.73;;;1.27;;
22894;SDS011;11614;52.494;6.976;2023-03-03T19:14:47;9.00;;;1.77;;
22894;SDS011;11614;52.494;6.976;2023-03-03T19:22:45;12.13;;;3.13;;
22894;SDS011;11614;52.494;6.976;2023-03-03T19:25:25;8.77;;;2.40;;
22894;SDS011;11614;52.494;6.976;2023-03-03T19:33:12;9.23;;;2.00;;
22894;SDS011;11614;52.494;6.976;2023-03-03T19:35:44;9.47;;;1.87;;
22894;SDS011;11614;52.494;6.976;2023-03-03T19:38:41;8.00;;;1.67;;
22894;SDS011;11614;52.494;6.976;2023-03-03T19:44:28;12.50;;;2.33;;
22894;SDS011;11614;52.494;6.976;2023-03-03T19:50:06;6.77;;;1.00;;
22894;SDS011;11614;52.494;6.976;2023-03-03T19:52:49;11.27;;;2.10;;
22894;SDS011;11614;52.494;6.976;2023-03-03T20:13:30;14.13;;;2.67;;
22894;SDS011;11614;52.494;6.976;2023-03-03T20:18:41;11.67;;;2.13;;
22894;SDS011;11614;52.494;6.976;2023-03-03T20:21:24;9.87;;;2.03;;
22894;SDS011;11614;52.494;6.976;2023-03-03T20:26:54;8.90;;;2.17;;
22894;SDS011;11614;52.494;6.976;2023-03-03T20:34:53;15.43;;;3.23;;
22894;SDS011;11614;52.494;6.976;2023-03-03T20:45:57;9.60;;;2.53;;